createdAt,value
2023-01-19T00:01:56.444Z,79.74
2023-01-19T00:04:26.979Z,75.87
2023-01-19T00:06:57.483Z,78.56
2023-01-19T00:09:28.325Z,76.89
2023-01-19T00:11:58.848Z,75.71
2023-01-19T00:14:31.960Z,79.35
2023-01-19T00:17:03.471Z,78.66
2023-01-19T00:19:33.989Z,75.76
2023-01-19T00:22:06.326Z,79.90
2023-01-19T00:24:37.120Z,78.42
2023-01-19T00:27:07.773Z,74.12
2023-01-19T00:29:44.092Z,71.08
2023-01-19T00:32:14.682Z,73.78
2023-01-19T00:34:49.718Z,75.47
2023-01-19T00:37:20.983Z,76.94
2023-01-19T00:39:51.614Z,78.98
2023-01-19T00:42:34.352Z,80.80
2023-01-19T00:45:08.265Z,81.60
2023-01-19T00:47:39.502Z,82.15
2023-01-19T00:50:12.016Z,83.00
2023-01-19T00:52:42.697Z,84.21
2023-01-19T00:55:14.734Z,85.81
2023-01-19T00:57:46.148Z,84.56
2023-01-19T01:00:21.841Z,84.32
2023-01-19T01:02:54.336Z,83.35
2023-01-19T01:05:24.899Z,86.45
2023-01-19T01:07:55.396Z,84.67
2023-01-19T01:10:28.477Z,83.62
2023-01-19T01:12:59.214Z,82.82
2023-01-19T01:15:32.596Z,81.67
2023-01-19T01:18:03.457Z,81.05
2023-01-19T01:20:35.058Z,79.75
2023-01-19T01:23:05.704Z,78.75
2023-01-19T01:25:38.177Z,78.43
2023-01-19T01:28:09.985Z,77.83
2023-01-19T01:30:44.345Z,77.37
2023-01-19T01:33:14.860Z,76.67
2023-01-19T01:35:45.446Z,76.02
2023-01-19T01:38:16.103Z,75.79
2023-01-19T01:40:47.305Z,75.19
2023-01-19T01:43:20.706Z,75.01
2023-01-19T01:45:55.189Z,74.90
2023-01-19T01:48:33.674Z,74.41
2023-01-19T01:51:21.709Z,74.16
2023-01-19T01:53:58.611Z,74.16
2023-01-19T01:56:34.318Z,74.22
2023-01-19T01:59:08.496Z,73.91
2023-01-19T02:01:54.673Z,73.85
2023-01-19T02:04:26.947Z,73.82
2023-01-19T02:07:09.799Z,73.42
2023-01-19T02:09:52.970Z,72.99
2023-01-19T02:12:36.312Z,72.98
2023-01-19T02:15:07.711Z,72.55
2023-01-19T02:17:41.050Z,72.44
2023-01-19T02:20:13.456Z,72.49
2023-01-19T02:22:50.200Z,72.29
2023-01-19T02:25:23.683Z,72.05
2023-01-19T02:27:56.613Z,72.09
2023-01-19T02:30:28.077Z,71.65
2023-01-19T02:32:59.132Z,71.02
2023-01-19T02:35:30.478Z,70.99
2023-01-19T02:38:01.873Z,71.05
2023-01-19T02:40:35.308Z,70.80
2023-01-19T02:43:09.005Z,70.46
2023-01-19T02:45:41.755Z,70.06
2023-01-19T02:48:12.435Z,70.13
2023-01-19T02:50:49.655Z,69.78
2023-01-19T02:53:37.131Z,69.20
2023-01-19T02:56:27.772Z,69.19
2023-01-19T02:59:07.307Z,69.59
2023-01-19T03:01:49.808Z,69.33
2023-01-19T03:04:31.783Z,69.48
2023-01-19T03:07:11.383Z,69.17
2023-01-19T03:09:49.633Z,69.24
2023-01-19T03:12:31.357Z,69.50
2023-01-19T03:15:06.675Z,69.18
2023-01-19T03:17:38.934Z,69.28
2023-01-19T03:20:13.497Z,69.32
2023-01-19T03:22:45.517Z,68.99
2023-01-19T03:25:16.643Z,68.95
2023-01-19T03:27:51.767Z,68.87
2023-01-19T03:30:28.541Z,68.87
2023-01-19T03:33:05.167Z,68.69
2023-01-19T03:35:39.034Z,68.64
2023-01-19T03:38:15.143Z,68.65
2023-01-19T03:40:47.718Z,68.44
2023-01-19T03:43:22.668Z,68.67
2023-01-19T03:45:54.647Z,68.40
2023-01-19T03:48:25.649Z,68.61
2023-01-19T03:50:56.536Z,68.57
2023-01-19T03:53:27.019Z,68.38
2023-01-19T03:55:57.676Z,68.48
2023-01-19T03:58:31.095Z,68.41
2023-01-19T04:01:01.809Z,68.23
2023-01-19T04:03:32.411Z,68.37
2023-01-19T04:06:03.184Z,68.23
2023-01-19T04:08:33.702Z,68.12
2023-01-19T04:11:04.638Z,68.09
2023-01-19T04:13:38.712Z,68.48
2023-01-19T04:16:10.301Z,68.38
2023-01-19T04:18:41.209Z,68.23
2023-01-19T04:21:12.042Z,68.39
2023-01-19T04:23:44.622Z,68.21
2023-01-19T04:26:15.332Z,67.92
2023-01-19T04:28:48.464Z,68.13
2023-01-19T04:31:19.612Z,68.04
2023-01-19T04:33:50.542Z,68.27
2023-01-19T04:36:21.199Z,68.10
2023-01-19T04:38:51.917Z,68.38
2023-01-19T04:41:22.609Z,68.19
2023-01-19T04:43:55.839Z,67.93
2023-01-19T04:46:26.523Z,67.70
2023-01-19T04:48:57.580Z,68.01
2023-01-19T04:51:28.990Z,67.72
2023-01-19T04:54:00.216Z,67.94
2023-01-19T04:56:31.205Z,67.60
2023-01-19T04:59:04.600Z,68.05
2023-01-19T05:01:35.769Z,64.53
2023-01-19T05:04:08.042Z,63.13
2023-01-19T05:06:38.861Z,66.08
2023-01-19T05:09:09.454Z,68.34
2023-01-19T05:11:40.136Z,69.93
2023-01-19T05:14:13.431Z,72.40
2023-01-19T05:16:44.057Z,73.91
2023-01-19T05:19:14.518Z,75.44
2023-01-19T05:21:45.186Z,77.39
2023-01-19T05:24:16.088Z,80.36
2023-01-19T05:26:46.768Z,81.93
2023-01-19T05:29:20.043Z,81.69
2023-01-19T05:31:51.028Z,85.66
2023-01-19T05:34:21.940Z,82.03
2023-01-19T05:36:55.528Z,80.57
2023-01-19T05:39:27.026Z,79.36
2023-01-19T05:41:57.569Z,78.32
2023-01-19T05:44:30.780Z,77.06
2023-01-19T05:47:01.366Z,76.56
2023-01-19T05:49:31.911Z,75.34
2023-01-19T05:52:02.467Z,74.51
2023-01-19T05:54:33.051Z,73.97
2023-01-19T05:57:04.797Z,73.65
2023-01-19T05:59:38.016Z,73.49
2023-01-19T06:02:09.034Z,72.78
2023-01-19T06:04:39.574Z,72.32
2023-01-19T06:07:10.177Z,72.25
2023-01-19T06:09:40.771Z,72.05
2023-01-19T06:12:11.816Z,72.18
2023-01-19T06:14:45.091Z,71.89
2023-01-19T06:17:15.728Z,71.69
2023-01-19T06:19:46.210Z,71.08
2023-01-19T06:22:17.012Z,70.99
2023-01-19T06:24:47.754Z,70.84
2023-01-19T06:27:18.572Z,70.72
2023-01-19T06:29:51.708Z,70.16
2023-01-19T06:32:22.337Z,69.29
2023-01-19T06:34:54.082Z,68.88
2023-01-19T06:37:27.064Z,69.06
2023-01-19T06:39:57.632Z,68.86
2023-01-19T06:42:28.875Z,68.43
2023-01-19T06:45:02.046Z,68.68
2023-01-19T06:47:34.956Z,68.51
2023-01-19T06:50:05.502Z,68.56
2023-01-19T06:52:42.533Z,68.42
2023-01-19T06:55:14.778Z,68.41
2023-01-19T06:57:46.328Z,68.03
2023-01-19T07:00:21.705Z,68.47
2023-01-19T07:02:51.968Z,68.34
2023-01-19T07:05:22.403Z,68.35
2023-01-19T07:07:56.945Z,68.40
2023-01-19T07:11:25.921Z,68.68
2023-01-19T07:13:18.691Z,68.76
2023-01-19T07:15:51.895Z,68.59
2023-01-19T07:18:22.548Z,68.46
2023-01-19T07:20:53.076Z,68.69
2023-01-19T07:23:23.603Z,68.49
2023-01-19T07:25:54.163Z,68.23
2023-01-19T07:28:24.838Z,68.19
2023-01-19T07:30:58.855Z,67.77
2023-01-19T07:33:30.126Z,67.85
2023-01-19T07:36:00.614Z,67.63
2023-01-19T07:38:31.144Z,67.19
2023-01-19T07:41:04.995Z,67.03
2023-01-19T07:43:35.820Z,67.32
2023-01-19T07:46:10.192Z,67.10
2023-01-19T07:48:40.896Z,67.06
2023-01-19T07:51:18.070Z,67.36
2023-01-19T07:53:48.988Z,67.23
2023-01-19T07:56:19.891Z,67.09
2023-01-19T07:58:52.756Z,67.03
2023-01-19T08:01:26.207Z,67.03
2023-01-19T08:03:57.126Z,66.39
2023-01-19T08:06:33.507Z,66.40
2023-01-19T08:09:05.787Z,66.61
2023-01-19T08:11:37.047Z,66.00
2023-01-19T08:14:08.242Z,65.28
2023-01-19T08:16:41.374Z,65.64
2023-01-19T08:19:12.089Z,65.88
2023-01-19T08:21:42.686Z,65.73
2023-01-19T08:24:21.685Z,65.22
2023-01-19T08:26:53.029Z,64.99
2023-01-19T08:29:23.862Z,64.84
2023-01-19T08:31:59.163Z,65.13
2023-01-19T08:34:30.758Z,64.48
2023-01-19T08:37:01.988Z,64.28
2023-01-19T08:39:32.523Z,64.06
2023-01-19T08:42:03.092Z,63.78
2023-01-19T08:44:33.657Z,63.80
2023-01-19T08:47:07.836Z,63.85
2023-01-19T08:49:38.561Z,63.64
2023-01-19T08:52:09.145Z,63.45
2023-01-19T08:54:39.731Z,62.98
2023-01-19T08:57:10.222Z,63.29
2023-01-19T08:59:40.966Z,62.51
2023-01-19T09:02:14.997Z,61.58
2023-01-19T09:04:45.652Z,61.99
2023-01-19T09:07:16.152Z,61.07
2023-01-19T09:09:46.713Z,60.46
2023-01-19T09:12:17.189Z,58.59
2023-01-19T09:14:47.771Z,59.75
2023-01-19T09:17:21.017Z,59.92
2023-01-19T09:19:51.581Z,59.77
2023-01-19T09:22:22.170Z,59.57
2023-01-19T09:24:52.797Z,59.65
2023-01-19T09:27:23.517Z,59.50
2023-01-19T09:29:55.268Z,58.26
2023-01-19T09:32:28.456Z,56.06
2023-01-19T09:34:59.109Z,56.72
2023-01-19T09:37:29.511Z,56.44
2023-01-19T09:40:00.266Z,56.91
2023-01-19T09:42:36.688Z,56.33
2023-01-19T09:45:13.965Z,53.12
2023-01-19T09:47:48.790Z,53.88
2023-01-19T09:50:27.173Z,54.99
2023-01-19T09:53:07.585Z,54.68
2023-01-19T09:55:41.381Z,54.11
2023-01-19T09:58:18.524Z,52.51
2023-01-19T10:00:55.936Z,52.79
2023-01-19T10:03:29.150Z,52.27
2023-01-19T10:06:04.368Z,52.24
2023-01-19T10:08:43.221Z,51.06
2023-01-19T10:11:31.836Z,52.30
2023-01-19T10:14:14.559Z,51.25
2023-01-19T10:16:56.334Z,50.91
2023-01-19T10:19:33.050Z,51.16
2023-01-19T10:22:13.432Z,50.68
2023-01-19T10:24:47.305Z,50.51
2023-01-19T10:27:24.185Z,50.15
2023-01-19T10:29:55.278Z,50.51
2023-01-19T10:32:27.283Z,51.16
2023-01-19T10:35:02.388Z,50.95
2023-01-19T10:37:37.178Z,51.05
2023-01-19T10:40:23.729Z,50.64
2023-01-19T10:42:54.321Z,51.42
2023-01-19T10:45:29.566Z,50.92
2023-01-19T10:48:01.353Z,48.83
2023-01-19T10:50:37.372Z,48.26
2023-01-19T10:53:10.271Z,47.71
2023-01-19T10:55:43.324Z,47.65
2023-01-19T10:58:31.461Z,47.12
2023-01-19T11:01:17.134Z,46.80
2023-01-19T11:03:47.780Z,47.35
2023-01-19T11:06:30.256Z,47.69
2023-01-19T11:09:24.283Z,46.84
2023-01-19T11:11:57.063Z,47.35
2023-01-19T11:14:29.509Z,47.30
2023-01-19T11:17:01.750Z,45.97
2023-01-19T11:19:34.832Z,46.37
2023-01-19T11:22:22.534Z,45.10
2023-01-19T11:24:53.501Z,46.47
2023-01-19T11:27:25.166Z,46.05
2023-01-19T11:30:10.915Z,45.76
2023-01-19T11:32:43.220Z,46.21
2023-01-19T11:35:36.084Z,45.43
2023-01-19T11:38:23.380Z,45.75
2023-01-19T11:40:59.659Z,44.42
2023-01-19T11:43:48.237Z,45.46
2023-01-19T11:46:21.609Z,45.33
2023-01-19T11:49:02.249Z,44.93
2023-01-19T11:51:37.332Z,44.79
2023-01-19T11:54:18.706Z,45.04
2023-01-19T11:56:52.278Z,45.18
2023-01-19T11:59:24.314Z,46.37
2023-01-19T12:01:58.754Z,46.20
2023-01-19T12:04:34.272Z,45.94
2023-01-19T12:07:10.771Z,46.58
2023-01-19T12:09:49.971Z,45.65
2023-01-19T12:12:30.182Z,45.71
2023-01-19T12:15:05.498Z,45.59
2023-01-19T12:17:39.580Z,45.55
2023-01-19T12:20:22.057Z,46.58
2023-01-19T12:23:04.356Z,46.52
2023-01-19T12:25:53.319Z,45.17
2023-01-19T12:28:31.870Z,46.32
2023-01-19T12:31:04.678Z,46.42
2023-01-19T12:33:37.915Z,46.08
2023-01-19T12:36:14.394Z,44.58
2023-01-19T12:38:57.154Z,45.65
2023-01-19T12:41:36.497Z,45.95
2023-01-19T12:44:38.642Z,45.66
2023-01-19T12:47:24.728Z,45.37
2023-01-19T12:49:59.715Z,46.17
2023-01-19T12:52:34.761Z,45.16
2023-01-19T12:55:07.949Z,44.55
2023-01-19T12:57:43.816Z,44.73
2023-01-19T13:00:38.953Z,44.73
2023-01-19T13:03:39.878Z,45.14
2023-01-19T13:06:10.588Z,45.73
2023-01-19T13:08:59.366Z,44.82
2023-01-19T13:11:34.347Z,45.77
2023-01-19T13:14:37.815Z,44.14
2023-01-19T13:17:25.401Z,45.08
2023-01-19T13:20:21.380Z,45.58
2023-01-19T13:22:52.521Z,44.56
2023-01-19T13:25:33.903Z,45.47
2023-01-19T13:28:05.098Z,46.09
2023-01-19T13:30:38.360Z,45.88
2023-01-19T13:33:19.939Z,45.68
2023-01-19T13:35:57.360Z,45.74
2023-01-19T13:38:29.902Z,45.46
2023-01-19T13:41:05.052Z,45.98
2023-01-19T13:43:40.588Z,45.39
2023-01-19T13:46:14.757Z,45.74
2023-01-19T13:48:57.459Z,45.54
2023-01-19T13:51:28.132Z,45.30
2023-01-19T13:53:59.665Z,45.48
2023-01-19T13:56:31.053Z,45.76
2023-01-19T13:59:15.693Z,45.59
2023-01-19T14:01:51.244Z,45.75
2023-01-19T14:04:33.497Z,45.24
2023-01-19T14:07:06.129Z,45.84
2023-01-19T14:09:36.622Z,45.46
2023-01-19T14:12:15.007Z,45.87
2023-01-19T14:14:46.974Z,45.59
2023-01-19T14:17:30.048Z,45.57
2023-01-19T14:20:05.619Z,45.38
2023-01-19T14:22:44.125Z,45.57
2023-01-19T14:25:36.653Z,45.26
2023-01-19T14:28:32.088Z,45.21
2023-01-19T14:31:04.810Z,46.08
2023-01-19T14:33:47.177Z,45.86
2023-01-19T14:36:39.292Z,46.50
2023-01-19T14:39:23.529Z,46.41
2023-01-19T14:41:55.976Z,46.84
2023-01-19T14:44:31.892Z,47.34
2023-01-19T14:47:03.262Z,47.49
2023-01-19T14:49:37.180Z,47.44
2023-01-19T14:52:23.342Z,47.85
2023-01-19T14:54:54.773Z,48.10
2023-01-19T14:57:25.315Z,47.86
2023-01-19T14:59:56.068Z,48.37
2023-01-19T15:02:26.527Z,48.34
2023-01-19T15:04:58.093Z,48.39
2023-01-19T15:07:32.041Z,48.63
2023-01-19T15:10:02.928Z,48.99
2023-01-19T15:12:33.758Z,48.86
2023-01-19T15:15:04.799Z,48.87
2023-01-19T15:17:35.775Z,49.26
2023-01-19T15:20:06.622Z,49.56
2023-01-19T15:22:39.877Z,49.31
2023-01-19T15:25:11.041Z,49.64
2023-01-19T15:27:41.810Z,49.52
2023-01-19T15:30:24.527Z,49.53
2023-01-19T15:32:54.999Z,52.88
2023-01-19T15:35:27.072Z,57.55
2023-01-19T15:38:00.391Z,55.63
2023-01-19T15:40:31.036Z,57.83
2023-01-19T15:43:01.528Z,57.89
2023-01-19T15:45:38.747Z,57.37
2023-01-19T15:48:11.102Z,57.56
2023-01-19T15:50:45.177Z,57.59
2023-01-19T15:53:20.734Z,58.67
2023-01-19T15:55:55.646Z,57.95
2023-01-19T15:58:26.918Z,57.98
2023-01-19T16:00:58.490Z,58.18
2023-01-19T16:03:29.724Z,58.70
2023-01-19T16:06:03.671Z,59.35
2023-01-19T16:08:36.898Z,59.98
2023-01-19T16:11:09.094Z,60.16
2023-01-19T16:13:39.943Z,60.28
2023-01-19T16:16:16.797Z,60.06
2023-01-19T16:18:47.407Z,59.57
2023-01-19T16:21:18.379Z,60.36
2023-01-19T16:23:51.609Z,59.96
2023-01-19T16:26:34.768Z,60.15
2023-01-19T16:29:09.956Z,60.49
2023-01-19T16:31:41.162Z,61.17
2023-01-19T16:34:12.138Z,60.82
2023-01-19T16:36:44.590Z,60.17
2023-01-19T16:39:18.636Z,61.89
2023-01-19T16:41:49.355Z,61.44
2023-01-19T16:44:20.651Z,60.51
2023-01-19T16:46:52.622Z,62.10
2023-01-19T16:49:28.292Z,62.72
2023-01-19T16:51:59.997Z,62.29
2023-01-19T16:54:33.917Z,61.62
2023-01-19T16:57:05.050Z,62.91
2023-01-19T16:59:36.739Z,62.76
2023-01-19T17:02:08.015Z,62.08
2023-01-19T17:04:39.072Z,62.60
2023-01-19T17:07:09.938Z,63.50
2023-01-19T17:09:43.395Z,63.31
2023-01-19T17:12:14.033Z,62.85
2023-01-19T17:14:47.538Z,63.08
2023-01-19T17:17:18.506Z,64.62
2023-01-19T17:19:48.964Z,63.56
2023-01-19T17:22:19.743Z,62.97
2023-01-19T17:24:53.356Z,63.65
2023-01-19T17:27:24.221Z,63.69
2023-01-19T17:29:55.537Z,63.09
2023-01-19T17:32:26.312Z,62.81
2023-01-19T17:34:56.919Z,65.60
2023-01-19T17:37:28.058Z,63.80
2023-01-19T17:40:01.766Z,62.43
2023-01-19T17:42:34.591Z,64.21
2023-01-19T17:45:05.308Z,63.82
2023-01-19T17:47:36.160Z,62.23
2023-01-19T17:50:07.554Z,63.44
2023-01-19T17:52:38.510Z,64.26
2023-01-19T17:55:13.387Z,62.27
2023-01-19T17:57:44.832Z,59.83
2023-01-19T18:00:16.830Z,61.94
2023-01-19T18:02:47.915Z,64.20
2023-01-19T18:05:19.640Z,65.48
2023-01-19T18:07:50.957Z,67.65
2023-01-19T18:10:24.808Z,69.25
2023-01-19T18:12:55.359Z,69.81
2023-01-19T18:15:26.052Z,71.42
2023-01-19T18:17:56.773Z,73.20
2023-01-19T18:20:27.521Z,74.66
2023-01-19T18:22:58.345Z,75.73
2023-01-19T18:25:31.896Z,75.94
2023-01-19T18:28:02.603Z,75.68
2023-01-19T18:30:33.214Z,76.23
2023-01-19T18:33:04.560Z,76.97
2023-01-19T18:35:36.377Z,76.42
2023-01-19T18:38:07.483Z,75.56
2023-01-19T18:40:41.145Z,74.47
2023-01-19T18:43:12.048Z,73.44
2023-01-19T18:45:42.910Z,73.26
2023-01-19T18:48:13.764Z,73.65
2023-01-19T18:50:45.752Z,75.81
2023-01-19T18:53:17.936Z,77.49
2023-01-19T18:55:59.595Z,78.27
2023-01-19T18:58:32.909Z,77.34
2023-01-19T19:01:05.592Z,75.96
2023-01-19T19:03:38.552Z,75.39
2023-01-19T19:06:09.902Z,75.02
2023-01-19T19:08:43.114Z,74.25
2023-01-19T19:11:21.065Z,74.17
2023-01-19T19:13:58.016Z,73.25
2023-01-19T19:16:32.776Z,73.28
2023-01-19T19:19:07.361Z,74.21
2023-01-19T19:21:38.825Z,76.36
2023-01-19T19:24:11.628Z,77.47
2023-01-19T19:26:45.134Z,77.47
2023-01-19T19:29:16.886Z,76.35
2023-01-19T19:31:47.837Z,75.71
2023-01-19T19:34:18.801Z,74.69
2023-01-19T19:36:51.282Z,73.69
2023-01-19T19:39:23.317Z,72.97
2023-01-19T19:41:58.073Z,71.86
2023-01-19T19:44:29.261Z,71.12
2023-01-19T19:47:00.507Z,70.73
2023-01-19T19:49:32.883Z,69.72
2023-01-19T19:52:04.041Z,68.85
2023-01-19T19:54:37.471Z,68.10
2023-01-19T19:57:14.172Z,68.21
2023-01-19T19:59:45.371Z,67.75
2023-01-19T20:02:16.327Z,67.45
2023-01-19T20:04:47.251Z,67.40
2023-01-19T20:07:22.964Z,66.86
2023-01-19T20:09:56.743Z,66.87
2023-01-19T20:12:31.846Z,66.69
2023-01-19T20:15:02.978Z,66.13
2023-01-19T20:17:38.323Z,66.18
2023-01-19T20:20:13.021Z,66.03
2023-01-19T20:22:44.419Z,65.81
2023-01-19T20:25:15.097Z,65.57
2023-01-19T20:27:48.377Z,65.52
2023-01-19T20:30:19.616Z,65.22
2023-01-19T20:32:52.081Z,65.52
2023-01-19T20:35:22.904Z,65.42
2023-01-19T20:37:53.479Z,65.99
2023-01-19T20:40:24.365Z,65.93
2023-01-19T20:42:58.016Z,66.97
2023-01-19T20:45:28.747Z,66.37
2023-01-19T20:47:59.636Z,68.13
2023-01-19T20:50:31.054Z,66.78
2023-01-19T20:53:01.801Z,68.33
2023-01-19T20:55:33.365Z,67.16
2023-01-19T20:58:07.482Z,67.71
2023-01-19T21:00:38.734Z,67.18
2023-01-19T21:03:09.470Z,67.55
2023-01-19T21:05:40.460Z,67.06
2023-01-19T21:08:13.588Z,66.22
2023-01-19T21:10:45.083Z,69.93
2023-01-19T21:13:18.264Z,68.42
2023-01-19T21:15:49.011Z,69.03
2023-01-19T21:18:19.781Z,68.05
2023-01-19T21:20:51.487Z,66.79
2023-01-19T21:23:22.080Z,66.26
2023-01-19T21:25:53.692Z,68.96
2023-01-19T21:28:29.409Z,67.79
2023-01-19T21:31:00.453Z,68.67
2023-01-19T21:33:31.109Z,67.22
2023-01-19T21:36:04.139Z,69.79
2023-01-19T21:38:34.919Z,68.05
2023-01-19T21:41:10.044Z,66.58
2023-01-19T21:43:43.837Z,67.74
2023-01-19T21:46:17.332Z,69.27
2023-01-19T21:48:48.891Z,68.56
2023-01-19T21:51:19.615Z,68.73
2023-01-19T21:53:52.906Z,67.44
2023-01-19T21:56:23.912Z,69.06
2023-01-19T21:58:57.058Z,67.91
2023-01-19T22:01:28.104Z,65.92
2023-01-19T22:04:00.034Z,67.26
2023-01-19T22:06:31.261Z,67.49
2023-01-19T22:09:02.040Z,67.72
2023-01-19T22:11:33.287Z,66.19
2023-01-19T22:14:06.572Z,65.15
2023-01-19T22:16:37.387Z,65.60
2023-01-19T22:19:08.493Z,69.77
2023-01-19T22:21:39.602Z,68.89
2023-01-19T22:24:10.937Z,69.00
2023-01-19T22:26:41.929Z,68.70
2023-01-19T22:29:15.440Z,67.88
2023-01-19T22:31:47.187Z,71.17
2023-01-19T22:34:18.020Z,71.45
2023-01-19T22:36:48.599Z,69.96
2023-01-19T22:39:19.246Z,70.22
2023-01-19T22:41:50.245Z,73.01
2023-01-19T22:44:24.885Z,70.70
2023-01-19T22:46:58.449Z,70.94
2023-01-19T22:49:29.111Z,69.39
2023-01-19T22:51:59.760Z,70.55
2023-01-19T22:54:30.494Z,68.84
2023-01-19T22:57:01.977Z,66.85
2023-01-19T22:59:35.110Z,67.41
2023-01-19T23:02:05.839Z,69.25
2023-01-19T23:04:36.367Z,67.35
2023-01-19T23:07:09.469Z,65.34
2023-01-19T23:09:40.958Z,67.19
2023-01-19T23:12:11.565Z,64.77
2023-01-19T23:14:44.814Z,62.90
2023-01-19T23:17:15.395Z,64.68
2023-01-19T23:19:45.890Z,63.37
2023-01-19T23:22:16.570Z,61.36
2023-01-19T23:24:47.147Z,59.32
2023-01-19T23:27:17.884Z,61.28
2023-01-19T23:29:51.127Z,63.12
2023-01-19T23:32:21.739Z,63.85
2023-01-19T23:34:52.300Z,65.51
2023-01-19T23:37:22.834Z,67.37
2023-01-19T23:39:53.406Z,68.19
2023-01-19T23:42:24.075Z,68.07
2023-01-19T23:44:57.252Z,68.40
2023-01-19T23:47:28.175Z,67.54
2023-01-19T23:49:58.748Z,68.18
2023-01-19T23:52:29.460Z,68.33
2023-01-19T23:55:00.415Z,68.23
2023-01-19T23:57:31.019Z,67.91
